Portada
METAR-TAF:

METAR-TAF

Aeropuertos :

Yamena, Chad

Aeropuerto Internacional de Yamena

latitud: 12-08N, longitud: 015-02E, altitud: 295 m

Observación

El informe se hizo hace 1 hora y 2 minutos, a las 06:00 UTC
Viento 6 kt del sur
Temperatura 24°C
Humedad 94%
Presión 1014 hPa
Visibilidad 10 km o más
sin nubes por debajo de 1500 m y sin presencia de cumulonimbus.

METAR: FTTJ 240600Z 18006KT CAVOK 24/23 Q1014 NOSIG

Hora: 08:02 (07:02 UTC)

Pronóstico

El informe se hizo hace 14 horas y 2 minutos, a las 17:00 UTC
Pronóstico válido del 23 a las 18 UTC al 24 a las 24 UTC
Viento 7 kt del sur
Visibilidad 10 km o más
sin nubes por debajo de 1500 m y sin presencia de cumulonimbus.
Probabilidad 40% :
Temporalmente
del 24 a las 08 UTC al 24 a las 18 UTC
Viento 15 kt con dirección variable con ráfagas de 30 kt
Visibilidad: 3000 m
tormenta, lluvia

TAF: FTTJ 231700Z 2318/2424 18007KT CAVOK PROB40 TEMPO 2408/2418 VRB15G30KT 3000 TSRA

Observaciones y pronósticos meteorológicos de más de 4000 aeropuertos (mensajes METAR y TAF).

Los puntos amarillos y rojos representan las estaciones disponibles.

Ponga el ratón en el punto deseado para ver el nombre de la estación.

Haga clic para ver las observaciones y los pronósticos meteorológicos.

Para cambiar el mapa : haga clic en los botones verdes con una cruz de color negro para hacer un zoom, en el botón verde con un guión para alejar o en las flechas verdes para mapas adyacentes.


METAR-TAF: